Time;durP1;ratioP1;P1;durP2;ratioP2;P2;SDS_P1;SDS_P2;PMS_P1;PMS_P2;Temp;Humidity;BMP_temperature;BMP_pressure;BME280_temperature;BME280_humidity;BME280_pressure;Samples;Min_cycle;Max_cycle;Signal;HPM_P1;HPM_P2
2021/01/12 00:00:25;;;;;;;16.42;8.48;;;;;;;2.59;71.22;93708.19;5056988;28;20036;-77
2021/01/12 00:02:52;;;;;;;14.45;7.88;;;;;;;2.50;71.76;93720.28;5057047;28;20059;-78
2021/01/12 00:05:20;;;;;;;16.88;8.38;;;;;;;2.45;72.09;93722.94;5063789;28;20032;-77
2021/01/12 00:07:50;;;;;;;15.95;8.88;;;;;;;2.40;72.54;93707.97;5059482;28;20461;-77
2021/01/12 00:10:20;;;;;;;22.02;9.80;;;;;;;2.36;72.71;93693.75;5070275;28;20017;-77
2021/01/12 00:12:46;;;;;;;17.27;8.45;;;;;;;2.42;72.43;93681.38;5058367;28;20049;-77
2021/01/12 00:15:12;;;;;;;16.38;8.30;;;;;;;2.36;72.63;93683.25;5070938;28;20077;-77
2021/01/12 00:17:37;;;;;;;18.10;8.98;;;;;;;2.37;73.33;93712.97;5065060;28;20123;-77
2021/01/12 00:20:08;;;;;;;14.80;7.47;;;;;;;2.29;72.60;93716.13;5057998;28;20380;-76
2021/01/12 00:22:36;;;;;;;16.35;8.52;;;;;;;2.25;73.02;93696.66;5069805;28;20151;-76
2021/01/12 00:25:03;;;;;;;15.73;8.38;;;;;;;2.26;72.79;93693.78;5072085;28;20082;-76
2021/01/12 00:27:29;;;;;;;17.35;9.50;;;;;;;2.29;72.99;93695.88;5053828;28;20029;-76
2021/01/12 00:29:57;;;;;;;21.10;8.93;;;;;;;2.37;73.34;93671.66;5057797;28;20039;-77
2021/01/12 00:32:32;;;;;;;23.77;8.63;;;;;;;2.40;72.91;93662.44;5063776;28;20020;-78
2021/01/12 00:34:58;;;;;;;17.48;8.50;;;;;;;2.43;72.30;93679.56;5070680;28;20502;-78
2021/01/12 00:37:26;;;;;;;15.52;8.75;;;;;;;2.38;72.29;93693.47;5071997;28;20032;-78
2021/01/12 00:39:53;;;;;;;17.15;8.35;;;;;;;2.35;72.86;93694.03;5054010;28;20047;-78
2021/01/12 00:42:21;;;;;;;20.63;8.80;;;;;;;2.33;73.09;93680.34;5062398;28;20031;-78
2021/01/12 00:44:47;;;;;;;20.27;9.60;;;;;;;2.31;73.14;93677.97;5070545;28;20028;-78
2021/01/12 00:47:15;;;;;;;24.60;10.10;;;;;;;2.34;73.06;93660.88;5060830;28;20055;-78
2021/01/12 00:49:41;;;;;;;21.38;10.00;;;;;;;2.36;72.82;93661.38;5050581;28;20040;-78
2021/01/12 00:52:15;;;;;;;20.00;9.25;;;;;;;2.34;72.96;93663.50;5050702;28;20381;-78
2021/01/12 00:54:41;;;;;;;21.20;9.27;;;;;;;2.34;72.94;93679.28;5050442;28;20048;-78
2021/01/12 00:57:06;;;;;;;20.52;9.38;;;;;;;2.31;73.48;93675.34;5068061;28;20396;-77
2021/01/12 00:59:33;;;;;;;15.95;9.38;;;;;;;2.27;73.38;93671.66;5065787;28;20040;-77
2021/01/12 01:02:08;;;;;;;19.42;8.93;;;;;;;2.30;73.22;93667.72;5055116;28;20025;-77
2021/01/12 01:04:36;;;;;;;18.00;8.85;;;;;;;2.27;73.00;93663.00;5070093;28;20045;-77
2021/01/12 01:07:02;;;;;;;17.45;10.38;;;;;;;2.29;73.55;93653.78;5053673;28;20020;-77
2021/01/12 01:09:27;;;;;;;19.00;9.88;;;;;;;2.37;73.05;93657.72;5051305;28;20056;-77
2021/01/12 01:11:53;;;;;;;25.10;9.93;;;;;;;2.29;73.12;93659.03;5059646;28;20020;-77
2021/01/12 01:14:19;;;;;;;18.10;8.98;;;;;;;2.29;73.00;93658.25;5059298;28;20128;-78
2021/01/12 01:16:55;;;;;;;21.63;10.18;;;;;;;2.28;72.92;93659.31;5058649;28;20024;-77
2021/01/12 01:19:31;;;;;;;23.80;10.63;;;;;;;2.30;73.15;93667.72;5067828;28;20035;-78
2021/01/12 01:21:57;;;;;;;20.80;9.25;;;;;;;2.25;73.21;93665.09;5068392;28;20017;-78
2021/01/12 01:24:22;;;;;;;20.17;9.82;;;;;;;2.18;73.40;93676.69;5070121;28;20043;-78
2021/01/12 01:26:54;;;;;;;16.98;9.25;;;;;;;2.23;73.58;93680.38;5070801;28;20411;-78
2021/01/12 01:29:22;;;;;;;25.23;10.40;;;;;;;2.20;73.56;93671.94;5065859;28;20028;-78
2021/01/12 01:31:50;;;;;;;25.42;10.55;;;;;;;2.12;73.77;93656.72;5069241;28;20033;-78
2021/01/12 01:34:15;;;;;;;20.13;8.88;;;;;;;2.15;74.27;93668.53;5068368;28;20073;-78
2021/01/12 01:36:40;;;;;;;16.30;8.55;;;;;;;2.17;74.17;93680.34;5055534;28;20029;-78
2021/01/12 01:39:06;;;;;;;17.52;8.32;;;;;;;2.16;74.29;93676.16;5063865;28;20036;-78
2021/01/12 01:41:32;;;;;;;23.00;9.63;;;;;;;2.15;74.04;93658.00;5069436;28;20376;-78
2021/01/12 01:44:02;;;;;;;17.88;9.13;;;;;;;2.18;74.16;93662.75;5050613;28;20090;-78
2021/01/12 01:46:28;;;;;;;21.42;9.43;;;;;;;2.09;74.31;93682.75;5052477;28;20029;-78
2021/01/12 01:48:54;;;;;;;21.27;10.75;;;;;;;1.93;75.06;93658.28;5049280;28;20039;-78
2021/01/12 01:51:22;;;;;;;25.63;10.98;;;;;;;1.84;75.69;93633.59;5068135;28;20093;-78
2021/01/12 01:53:48;;;;;;;24.83;12.57;;;;;;;1.87;75.53;93667.22;5069049;28;20032;-78
2021/01/12 01:56:16;;;;;;;27.65;13.70;;;;;;;1.87;75.44;93652.25;5058509;28;20541;-78
2021/01/12 01:58:42;;;;;;;28.35;13.25;;;;;;;1.86;76.65;93640.16;5056428;28;20028;-78
2021/01/12 02:01:10;;;;;;;27.98;12.73;;;;;;;1.88;75.79;93639.91;5061754;28;20025;-78
2021/01/12 02:03:44;;;;;;;32.03;13.07;;;;;;;1.94;75.61;93633.59;5061303;28;20048;-77
2021/01/12 02:06:25;;;;;;;27.60;12.57;;;;;;;1.89;75.34;93629.09;5065542;28;20037;-78
2021/01/12 02:09:01;;;;;;;29.38;14.27;;;;;;;1.87;75.66;93617.28;5059463;28;20041;-77
2021/01/12 02:11:31;;;;;;;33.15;13.10;;;;;;;1.90;75.68;93614.16;5056391;28;20024;-77
2021/01/12 02:14:04;;;;;;;25.23;11.88;;;;;;;1.94;75.50;93604.69;5065475;28;20059;-77
2021/01/12 02:16:30;;;;;;;28.65;12.75;;;;;;;1.90;75.68;93587.88;5049065;28;20091;-77
2021/01/12 02:19:03;;;;;;;25.05;12.48;;;;;;;1.95;75.76;93585.22;5060505;28;20350;-77
2021/01/12 02:21:29;;;;;;;22.58;10.93;;;;;;;2.00;75.58;93588.63;5069816;28;20055;-77
2021/01/12 02:23:59;;;;;;;26.73;12.93;;;;;;;2.07;75.46;93585.72;5053027;28;20496;-77
2021/01/12 02:26:25;;;;;;;25.23;12.45;;;;;;;2.17;74.82;93593.59;5070143;28;20024;-77
2021/01/12 02:28:51;;;;;;;23.98;11.68;;;;;;;2.21;74.81;93578.84;5055466;28;20024;-77
2021/01/12 02:31:17;;;;;;;22.95;12.20;;;;;;;2.27;74.73;93568.31;5067540;28;20051;-77
2021/01/12 02:33:47;;;;;;;27.27;14.25;;;;;;;2.30;74.64;93580.94;5069015;28;20024;-77
2021/01/12 02:36:18;;;;;;;27.75;12.52;;;;;;;2.36;74.11;93595.63;5070500;28;20062;-77
2021/01/12 02:38:46;;;;;;;27.98;11.05;;;;;;;2.39;73.58;93571.44;5069076;28;20073;-77
2021/01/12 02:41:17;;;;;;;21.50;11.20;;;;;;;2.38;73.82;93572.47;5068709;28;20028;-77
2021/01/12 02:43:46;;;;;;;25.15;12.93;;;;;;;2.37;73.89;93566.44;5068533;28;20024;-77
2021/01/12 02:46:21;;;;;;;28.73;12.25;;;;;;;2.44;73.97;93557.47;5068706;28;20041;-77
2021/01/12 02:48:48;;;;;;;24.85;12.98;;;;;;;2.47;73.82;93557.72;5050069;28;20021;-77
2021/01/12 02:51:16;;;;;;;26.75;12.35;;;;;;;2.53;73.92;93550.63;5051688;28;20025;-77
2021/01/12 02:53:44;;;;;;;23.17;12.05;;;;;;;2.57;73.37;93546.38;5058791;28;20017;-77
2021/01/12 02:56:21;;;;;;;24.70;11.68;;;;;;;2.59;73.48;93549.53;5059683;28;20021;-78
2021/01/12 02:58:47;;;;;;;24.73;11.95;;;;;;;2.60;73.72;93538.72;5076359;28;20092;-77
2021/01/12 03:01:14;;;;;;;30.45;12.70;;;;;;;2.59;73.63;93547.69;5053979;28;20032;-78
2021/01/12 03:03:42;;;;;;;26.17;12.75;;;;;;;2.65;73.47;93556.34;5049627;28;20462;-78
2021/01/12 03:06:08;;;;;;;29.50;12.35;;;;;;;2.69;73.00;93548.69;5048791;28;20036;-77
2021/01/12 03:08:36;;;;;;;32.13;12.27;;;;;;;2.65;72.84;93551.06;5059937;28;20032;-78
2021/01/12 03:11:01;;;;;;;27.50;12.57;;;;;;;2.58;72.83;93551.34;5070812;28;20438;-78
2021/01/12 03:13:36;;;;;;;28.60;12.45;;;;;;;2.51;73.49;93539.56;5054826;28;20184;-77
2021/01/12 03:16:04;;;;;;;28.00;13.57;;;;;;;2.48;73.66;93551.41;5059509;28;20033;-77
2021/01/12 03:18:32;;;;;;;34.28;12.75;;;;;;;2.43;73.47;93554.06;5052288;28;20025;-77
2021/01/12 03:20:58;;;;;;;33.55;13.52;;;;;;;2.35;74.46;93550.13;5051943;28;20025;-77
2021/01/12 03:23:24;;;;;;;36.83;13.05;;;;;;;2.34;74.73;93545.16;5052311;28;20446;-77
2021/01/12 03:26:00;;;;;;;32.22;15.02;;;;;;;2.29;74.74;93535.44;5069873;28;20047;-78
2021/01/12 03:28:30;;;;;;;41.13;13.15;;;;;;;2.16;74.97;93534.19;5059207;28;20506;-77
2021/01/12 03:31:00;;;;;;;36.38;16.08;;;;;;;2.20;74.76;93550.22;5052848;28;20147;-77
2021/01/12 03:33:26;;;;;;;72.65;16.13;;;;;;;2.24;75.03;93547.81;5072447;28;20073;-78
2021/01/12 03:35:51;;;;;;;103.35;16.08;;;;;;;2.17;74.90;93535.72;5070533;28;20446;-77
2021/01/12 03:38:17;;;;;;;43.97;15.70;;;;;;;2.14;75.57;93536.28;5052276;28;20059;-78
2021/01/12 03:40:47;;;;;;;70.18;14.43;;;;;;;2.15;75.55;93537.06;5068579;28;20082;-78
2021/01/12 03:43:18;;;;;;;88.13;15.60;;;;;;;2.16;75.44;93534.19;5071969;28;20050;-77
2021/01/12 03:45:54;;;;;;;84.63;14.80;;;;;;;2.18;74.99;93537.31;5065094;28;20024;-78
2021/01/12 03:48:20;;;;;;;99.70;15.82;;;;;;;2.15;75.33;93534.44;5061416;28;20033;-77
2021/01/12 03:50:46;;;;;;;99.80;15.73;;;;;;;2.07;75.73;93535.75;5052509;28;20017;-77
2021/01/12 03:53:14;;;;;;;35.65;14.60;;;;;;;1.99;76.22;93512.66;5071215;28;20028;-77
2021/01/12 03:55:41;;;;;;;95.68;17.02;;;;;;;1.99;76.62;93520.53;5067607;28;20029;-77
2021/01/12 03:58:09;;;;;;;119.95;14.82;;;;;;;2.03;76.28;93523.44;5052793;28;20036;-77
2021/01/12 04:00:34;;;;;;;53.47;13.60;;;;;;;1.95;76.69;93522.13;5060018;28;20044;-77
2021/01/12 04:03:02;;;;;;;106.65;14.30;;;;;;;1.95;76.58;93509.00;5053215;28;20025;-78
2021/01/12 04:05:28;;;;;;;92.25;13.38;;;;;;;1.98;75.99;93519.00;5051261;28;20021;-78
2021/01/12 04:07:55;;;;;;;82.90;11.43;;;;;;;1.97;75.99;93525.28;5051642;28;20572;-78
2021/01/12 04:10:21;;;;;;;31.10;10.50;;;;;;;1.92;76.06;93520.84;5059980;28;20027;-78
2021/01/12 04:12:46;;;;;;;133.30;12.70;;;;;;;1.92;76.31;93523.47;5071199;28;20490;-78
2021/01/12 04:15:12;;;;;;;19.00;9.85;;;;;;;1.93;76.32;93514.50;5061393;28;20029;-78
2021/01/12 04:17:40;;;;;;;48.53;10.30;;;;;;;1.92;76.49;93491.16;5052626;28;20055;-78
2021/01/12 04:20:06;;;;;;;17.55;9.30;;;;;;;1.95;76.07;93480.84;5059931;28;20058;-78
2021/01/12 04:22:32;;;;;;;20.90;8.68;;;;;;;2.04;75.84;93469.81;5052916;28;20108;-78
2021/01/12 04:24:57;;;;;;;15.50;8.10;;;;;;;2.06;75.12;93476.38;5051136;28;20016;-78
2021/01/12 04:27:23;;;;;;;16.17;7.18;;;;;;;2.12;74.95;93504.22;5059377;28;20021;-78
2021/01/12 04:29:50;;;;;;;10.45;6.65;;;;;;;2.22;74.82;93500.75;5063294;28;20483;-78
2021/01/12 04:32:20;;;;;;;15.10;7.43;;;;;;;2.27;74.52;93479.69;5072355;28;20024;-78
2021/01/12 04:34:56;;;;;;;13.25;6.60;;;;;;;2.29;74.29;93474.16;5070970;28;20138;-78
2021/01/12 04:37:22;;;;;;;11.38;6.55;;;;;;;2.27;74.53;93471.03;5060564;28;20079;-77
2021/01/12 04:39:47;;;;;;;12.63;7.25;;;;;;;2.31;74.31;93480.72;5067359;28;20387;-77
2021/01/12 04:42:12;;;;;;;13.02;7.32;;;;;;;2.40;73.93;93491.47;5050714;28;20032;-78
2021/01/12 04:44:38;;;;;;;15.80;7.50;;;;;;;2.42;73.97;93473.56;5050917;28;20033;-78
2021/01/12 04:47:07;;;;;;;14.00;7.53;;;;;;;2.38;73.90;93472.53;5062927;28;20110;-78
2021/01/12 04:49:33;;;;;;;13.93;6.70;;;;;;;2.43;73.85;93498.03;5050902;28;20395;-77
2021/01/12 04:52:03;;;;;;;17.20;8.88;;;;;;;2.49;72.79;93494.34;5063508;28;20055;-77
2021/01/12 04:54:37;;;;;;;15.45;8.32;;;;;;;2.41;73.49;93485.16;5066897;28;20498;-77
2021/01/12 04:57:03;;;;;;;89.65;12.82;;;;;;;2.38;73.32;93499.63;5063480;28;20058;-79
2021/01/12 04:59:32;;;;;;;39.38;10.25;;;;;;;2.35;73.65;93504.66;5053694;28;20061;-78
2021/01/12 05:02:01;;;;;;;45.50;10.00;;;;;;;2.24;73.92;93503.09;5065252;28;20102;-78
2021/01/12 05:04:27;;;;;;;84.85;10.10;;;;;;;2.06;74.54;93492.16;5051658;28;20031;-78
2021/01/12 05:06:53;;;;;;;61.15;9.80;;;;;;;2.03;74.55;93492.66;5055319;28;20399;-77
2021/01/12 05:09:22;;;;;;;158.90;12.60;;;;;;;1.92;75.05;93528.72;5052952;28;20033;-77
2021/01/12 05:11:48;;;;;;;20.52;10.55;;;;;;;1.82;75.79;93517.44;5050090;28;20082;-78
2021/01/12 05:14:16;;;;;;;29.58;11.05;;;;;;;1.75;76.04;93497.50;5049685;28;20533;-78
2021/01/12 05:16:46;;;;;;;21.20;8.30;;;;;;;1.75;75.62;93497.50;5069608;28;20024;-77
2021/01/12 05:19:42;;;;;;;20.00;8.65;;;;;;;1.73;75.52;93486.47;5069856;28;20106;-78
2021/01/12 05:22:10;;;;;;;18.50;8.80;;;;;;;1.69;75.90;93482.78;5053850;28;20060;-78
2021/01/12 05:25:19;;;;;;;23.52;9.18;;;;;;;1.68;76.01;93478.59;5069387;28;20028;-78
2021/01/12 05:27:33;;;;;;;18.98;9.45;;;;;;;1.77;75.91;93474.38;5070633;28;20032;-77
2021/01/12 05:30:12;;;;;;;;;;;;;;;;;;;;;
2021/01/12 05:32:39;;;;;;;16.85;9.13;;;;;;;1.79;76.14;93464.38;5064482;28;20027;-76
2021/01/12 05:35:07;;;;;;;26.45;9.93;;;;;;;1.78;75.84;93447.03;5050852;28;20031;-76
2021/01/12 05:37:33;;;;;;;17.63;8.80;;;;;;;1.79;76.27;93461.75;5049431;28;20039;-78
2021/01/12 05:40:04;;;;;;;18.08;9.38;;;;;;;1.85;76.29;93474.84;5049617;28;20017;-78
2021/01/12 05:42:38;;;;;;;19.75;9.80;;;;;;;1.95;75.64;93472.19;5067796;28;20024;-78
2021/01/12 05:45:04;;;;;;;18.75;9.00;;;;;;;1.99;75.64;93475.84;5056912;28;20029;-78
2021/01/12 05:47:29;;;;;;;17.45;9.88;;;;;;;2.03;75.14;93474.25;5050763;28;20033;-77
2021/01/12 05:49:59;;;;;;;22.90;11.32;;;;;;;2.08;74.95;93474.25;5049439;28;20090;-77
2021/01/12 05:52:26;;;;;;;23.88;11.48;;;;;;;2.12;74.76;93485.03;5064895;28;20048;-77
2021/01/12 05:55:30;;;;;;;27.58;11.80;;;;;;;2.12;74.92;93480.56;5051792;28;20060;-77
2021/01/12 05:58:12;;;;;;;23.73;11.63;;;;;;;2.10;75.07;93456.38;5068684;28;20407;-78
2021/01/12 06:00:42;;;;;;;43.58;15.65;;;;;;;2.09;74.72;93467.94;5069300;28;20021;-78
2021/01/12 06:03:12;;;;;;;32.65;15.95;;;;;;;2.04;74.91;93457.44;5062274;28;20028;-78
2021/01/12 06:05:39;;;;;;;19.33;9.70;;;;;;;2.01;74.05;93452.72;5066297;28;20063;-78
2021/01/12 06:08:04;;;;;;;14.00;8.05;;;;;;;1.88;74.60;93453.31;5063258;28;20032;-78
2021/01/12 06:10:38;;;;;;;15.82;8.07;;;;;;;1.78;74.67;93459.38;5058697;28;20454;-78
2021/01/12 06:13:18;;;;;;;19.20;9.20;;;;;;;1.64;75.37;93472.28;5058978;28;20120;-78
2021/01/12 06:15:48;;;;;;;22.00;10.15;;;;;;;1.50;75.61;93474.66;5058403;28;20027;-76
2021/01/12 06:18:16;;;;;;;23.10;10.75;;;;;;;1.45;76.43;93479.94;5064891;28;20032;-78
2021/01/12 06:20:55;;;;;;;19.00;9.45;;;;;;;1.52;76.39;93471.78;5050413;28;20061;-77
2021/01/12 06:23:36;;;;;;;19.80;9.93;;;;;;;1.49;75.70;93459.19;5057617;28;20431;-77
2021/01/12 06:26:06;;;;;;;18.30;9.70;;;;;;;1.42;76.33;93461.31;5068341;28;20024;-78
2021/01/12 06:28:32;;;;;;;17.55;9.85;;;;;;;1.42;76.26;93461.31;5060784;28;20055;-78
2021/01/12 06:30:58;;;;;;;18.50;10.82;;;;;;;1.43;75.79;93431.38;5056126;28;20443;-78
2021/01/12 06:33:23;;;;;;;16.15;10.05;;;;;;;1.38;76.13;93438.22;5055387;28;20031;-79
2021/01/12 06:35:51;;;;;;;20.38;11.00;;;;;;;1.37;76.69;93433.22;5054684;28;20059;-78
2021/01/12 06:38:20;;;;;;;22.77;13.00;;;;;;;1.45;76.67;93429.28;5068502;28;20025;-79
2021/01/12 06:40:53;;;;;;;21.90;11.65;;;;;;;1.51;76.65;93417.69;5057786;28;20588;-78
2021/01/12 06:43:24;;;;;;;20.00;9.98;;;;;;;1.61;76.21;93428.16;5062556;28;20518;-78
2021/01/12 06:45:52;;;;;;;20.70;10.57;;;;;;;1.59;75.45;93438.16;5054345;28;20036;-78
2021/01/12 06:48:18;;;;;;;17.55;10.60;;;;;;;1.55;75.51;93443.16;5054457;28;20021;-78
2021/01/12 06:50:50;;;;;;;20.05;10.90;;;;;;;1.51;76.09;93430.81;5048758;28;20089;-78
2021/01/12 06:53:15;;;;;;;20.30;10.48;;;;;;;1.51;76.03;93431.59;5061132;28;20017;-78
2021/01/12 06:55:42;;;;;;;23.65;11.68;;;;;;;1.63;76.18;93426.06;5067658;28;20020;-77
2021/01/12 06:58:09;;;;;;;19.20;11.02;;;;;;;1.63;76.07;93425.25;5048072;28;20033;-77
2021/01/12 07:00:37;;;;;;;18.67;9.15;;;;;;;1.67;75.48;93445.50;5048079;28;20033;-78
2021/01/12 07:03:05;;;;;;;21.98;10.52;;;;;;;1.66;75.85;93451.00;5068315;28;20025;-76
2021/01/12 07:05:47;;;;;;;16.73;9.45;;;;;;;1.67;75.71;93456.00;5069875;28;20029;-77
2021/01/12 07:08:12;;;;;;;40.17;17.75;;;;;;;1.65;75.56;93436.28;5068525;28;20040;-78
2021/01/12 07:10:47;;;;;;;26.13;11.18;;;;;;;1.60;76.00;93437.09;5049587;28;20114;-78
2021/01/12 07:13:13;;;;;;;23.77;11.98;;;;;;;1.55;76.24;93437.13;5065985;28;20072;-77
2021/01/12 07:15:44;;;;;;;41.00;15.43;;;;;;;1.50;76.74;93445.00;5068526;28;20117;-78
2021/01/12 07:18:10;;;;;;;22.25;12.40;;;;;;;1.52;76.66;93443.66;5059365;28;20029;-77
2021/01/12 07:20:56;;;;;;;29.38;12.82;;;;;;;1.59;76.50;93440.78;5054011;28;20024;-78
2021/01/12 07:23:26;;;;;;;26.98;12.80;;;;;;;1.62;76.10;93445.50;5034324;28;20391;-78
2021/01/12 07:25:52;;;;;;;24.10;11.68;;;;;;;1.52;76.22;93435.00;5056556;28;20013;-77
2021/01/12 07:28:20;;;;;;;23.33;12.68;;;;;;;1.48;76.58;93439.22;5057863;28;20031;-78
2021/01/12 07:30:48;;;;;;;31.73;14.25;;;;;;;1.54;76.15;93448.66;5062738;28;20032;-80
2021/01/12 07:33:16;;;;;;;33.28;14.55;;;;;;;1.47;76.32;93459.47;5058574;28;20052;-78
2021/01/12 07:35:43;;;;;;;24.67;12.63;;;;;;;1.48;76.66;93481.25;5064666;28;20025;-79
2021/01/12 07:38:20;;;;;;;25.48;12.30;;;;;;;1.50;76.00;93458.13;5051232;28;20031;-79
2021/01/12 07:40:46;;;;;;;26.73;10.43;;;;;;;1.48;76.30;93454.97;5042064;28;20047;-77
2021/01/12 07:43:17;;;;;;;20.92;9.77;;;;;;;1.50;76.50;93458.13;5068165;28;20028;-78
2021/01/12 07:45:42;;;;;;;19.15;10.15;;;;;;;1.49;76.82;93451.31;5066733;28;20113;-78
2021/01/12 07:48:09;;;;;;;15.95;9.35;;;;;;;1.58;76.48;93452.34;5061026;28;20036;-79
2021/01/12 07:50:35;;;;;;;22.60;10.48;;;;;;;1.63;76.13;93452.34;5069186;28;20043;-78
2021/01/12 07:53:04;;;;;;;17.80;10.38;;;;;;;1.67;76.00;93439.44;5060894;28;20020;-79
2021/01/12 07:55:29;;;;;;;25.05;11.23;;;;;;;1.71;75.73;93436.03;5057076;28;20067;-74
2021/01/12 07:57:56;;;;;;;30.17;12.18;;;;;;;1.75;75.44;93433.63;5065185;28;20020;-79
2021/01/12 08:00:22;;;;;;;14.10;7.97;;;;;;;1.80;74.42;93436.25;5053704;28;20140;-76
2021/01/12 08:02:52;;;;;;;15.40;9.13;;;;;;;1.79;74.45;93434.66;5052286;28;20388;-73
2021/01/12 08:05:24;;;;;;;14.20;8.05;;;;;;;1.71;74.53;93438.66;5058956;28;20035;-75
2021/01/12 08:07:50;;;;;;;23.40;11.35;;;;;;;1.75;75.00;93433.63;5071030;28;20033;-72
2021/01/12 08:10:16;;;;;;;16.95;9.70;;;;;;;1.78;74.78;93433.09;5056649;28;20032;-74
2021/01/12 08:12:42;;;;;;;24.02;10.70;;;;;;;1.78;75.10;93433.88;5067882;28;20048;-72
2021/01/12 08:15:11;;;;;;;19.23;10.10;;;;;;;1.85;75.42;93432.81;5072455;28;20028;-72
2021/01/12 08:17:47;;;;;;;15.50;8.40;;;;;;;1.80;74.90;93436.25;5062754;28;20507;-72
2021/01/12 08:20:15;;;;;;;17.85;8.23;;;;;;;1.83;74.49;93419.16;5060834;28;20041;-72
2021/01/12 08:22:41;;;;;;;13.05;7.75;;;;;;;1.85;74.00;93428.31;5053911;28;20029;-73
2021/01/12 08:25:08;;;;;;;19.05;8.75;;;;;;;1.80;74.60;93416.00;5061780;28;20028;-74
2021/01/12 08:27:34;;;;;;;22.63;10.80;;;;;;;1.77;74.80;93411.31;5058382;28;20029;-71
2021/01/12 08:30:06;;;;;;;27.75;11.38;;;;;;;1.76;75.14;93416.81;5066516;28;20021;-72
2021/01/12 08:32:34;;;;;;;22.10;10.60;;;;;;;1.78;75.81;93399.72;5059600;28;20020;-71
2021/01/12 08:35:07;;;;;;;20.30;10.18;;;;;;;1.76;74.76;93407.09;5052292;28;20021;-72
2021/01/12 08:37:38;;;;;;;21.23;11.30;;;;;;;1.74;75.47;93405.78;5064553;28;20017;-73
2021/01/12 08:40:07;;;;;;;27.10;13.07;;;;;;;1.74;75.34;93411.81;5069239;28;20427;-73
2021/01/12 08:42:38;;;;;;;20.63;11.95;;;;;;;1.76;75.88;93414.97;5071951;28;20022;-73
2021/01/12 08:45:12;;;;;;;15.20;8.85;;;;;;;1.88;75.12;93398.13;5071605;28;20020;-74
2021/01/12 08:47:40;;;;;;;21.50;12.48;;;;;;;1.94;75.07;93389.16;5070592;28;20367;-72
2021/01/12 08:50:07;;;;;;;31.75;11.55;;;;;;;1.97;74.41;93383.34;5063365;28;20032;-73
2021/01/12 08:52:36;;;;;;;20.88;11.93;;;;;;;1.99;74.66;93391.75;5071906;28;20479;-72
2021/01/12 08:55:02;;;;;;;21.77;11.95;;;;;;;2.05;74.51;93387.25;5071649;28;20032;-71
2021/01/12 08:57:30;;;;;;;27.48;12.88;;;;;;;2.09;73.80;93386.44;5070026;28;20390;-74
2021/01/12 08:59:55;;;;;;;20.75;11.40;;;;;;;2.13;73.63;93378.78;5068604;28;20494;-73
2021/01/12 09:02:26;;;;;;;80.38;14.38;;;;;;;2.16;73.91;93380.91;5060481;28;20024;-74
2021/01/12 09:05:00;;;;;;;28.10;9.63;;;;;;;2.18;73.66;93365.63;5050374;28;20083;-70
2021/01/12 09:07:26;;;;;;;17.35;8.63;;;;;;;2.20;73.36;93369.56;5069983;28;20031;-70
2021/01/12 09:09:52;;;;;;;19.42;10.80;;;;;;;2.18;73.40;93368.25;5070731;28;20111;-71
2021/01/12 09:12:19;;;;;;;22.05;9.25;;;;;;;2.12;74.13;93370.13;5069464;28;20044;-71
2021/01/12 09:14:49;;;;;;;25.05;11.23;;;;;;;2.14;73.98;93367.22;5071197;28;20060;-70
2021/01/12 09:17:21;;;;;;;27.02;9.88;;;;;;;2.09;73.51;93373.28;5067586;28;20409;-69
2021/01/12 09:19:51;;;;;;;;;;;;;;;2.02;73.45;93362.31;5067457;28;20446;-70
2021/01/12 09:22:17;;;;;;;17.13;8.80;;;;;;;1.91;74.23;93353.66;5070179;28;19977;-70
2021/01/12 09:24:53;;;;;;;18.10;9.50;;;;;;;1.92;74.17;93355.25;5064133;28;20063;-71
2021/01/12 09:27:18;;;;;;;28.08;10.00;;;;;;;1.89;74.17;93342.63;5055366;28;20492;-71
2021/01/12 09:29:44;;;;;;;16.05;9.10;;;;;;;1.86;73.89;93337.94;5058533;28;20105;-70
2021/01/12 09:32:11;;;;;;;15.45;9.18;;;;;;;1.93;73.96;93333.16;5049548;28;20021;-70
2021/01/12 09:34:38;;;;;;;20.50;9.32;;;;;;;1.97;74.12;93328.16;5057569;28;20075;-70
2021/01/12 09:37:14;;;;;;;20.75;9.50;;;;;;;2.06;74.27;93321.28;5053849;28;20476;-70
2021/01/12 09:39:39;;;;;;;21.65;10.20;;;;;;;2.12;73.72;93328.06;5062871;28;20054;-71
2021/01/12 09:42:05;;;;;;;17.80;9.13;;;;;;;2.19;73.28;93328.53;5070613;28;20031;-71
2021/01/12 09:44:30;;;;;;;21.70;10.52;;;;;;;2.27;73.06;93323.75;5058703;28;20037;-70
2021/01/12 09:47:00;;;;;;;27.90;13.98;;;;;;;2.27;72.29;93323.75;5054214;28;20025;-73
2021/01/12 09:49:26;;;;;;;26.85;13.43;;;;;;;2.27;72.38;93315.88;5061590;28;20125;-72
2021/01/12 09:51:51;;;;;;;35.60;13.55;;;;;;;2.21;72.62;93302.75;5050433;28;20060;-71
2021/01/12 09:54:16;;;;;;;32.28;16.23;;;;;;;2.23;72.55;93299.06;5057076;28;20100;-71
2021/01/12 09:56:42;;;;;;;17.73;9.05;;;;;;;2.13;72.53;93303.31;5052800;28;20031;-71
2021/01/12 09:59:07;;;;;;;18.52;9.35;;;;;;;2.06;72.13;93288.94;5058273;28;20036;-71
2021/01/12 10:01:33;;;;;;;19.17;9.23;;;;;;;2.00;73.14;93278.44;5065716;28;20096;-72
2021/01/12 10:03:58;;;;;;;17.25;9.63;;;;;;;1.96;73.60;93260.88;5060442;28;20600;-71
2021/01/12 10:06:27;;;;;;;29.45;11.55;;;;;;;1.83;74.02;93251.75;5070054;28;20021;-71
2021/01/12 10:08:53;;;;;;;16.40;8.65;;;;;;;1.64;74.20;93248.97;5056891;28;20036;-73
2021/01/12 10:11:20;;;;;;;18.33;9.55;;;;;;;1.50;74.44;93253.28;5054564;28;20070;-73
2021/01/12 10:13:46;;;;;;;15.10;8.90;;;;;;;1.45;74.99;93245.44;5052373;28;20037;-69
2021/01/12 10:16:23;;;;;;;22.80;11.70;;;;;;;1.41;75.87;93242.56;5054660;28;20051;-70
2021/01/12 10:18:48;;;;;;;24.83;11.38;;;;;;;1.43;75.96;93252.78;5052858;28;20033;-74
2021/01/12 10:21:18;;;;;;;19.33;8.77;;;;;;;1.44;75.39;93249.88;5059522;28;20424;-74
2021/01/12 10:23:44;;;;;;;19.67;9.95;;;;;;;1.44;75.08;93252.50;5064846;28;20146;-74
2021/01/12 10:26:17;;;;;;;20.25;11.15;;;;;;;1.48;75.16;93252.75;5066340;28;20111;-75
2021/01/12 10:28:43;;;;;;;25.90;13.93;;;;;;;1.40;75.12;93248.84;5067996;28;20035;-74
2021/01/12 10:31:14;;;;;;;33.95;15.30;;;;;;;1.35;75.69;93247.03;5067761;28;20057;-75
2021/01/12 10:33:42;;;;;;;22.65;13.05;;;;;;;1.35;75.93;93236.53;5048956;28;20488;-74
2021/01/12 10:36:11;;;;;;;23.02;13.55;;;;;;;1.36;76.37;93234.69;5054218;28;20025;-75
2021/01/12 10:38:36;;;;;;;23.85;12.48;;;;;;;1.33;76.34;93222.91;5048253;28;20183;-73
2021/01/12 10:41:02;;;;;;;22.63;10.63;;;;;;;1.31;75.84;93221.59;5046645;28;20154;-75
2021/01/12 10:43:27;;;;;;;19.42;10.05;;;;;;;1.19;75.86;93217.44;5054453;28;20029;-74
2021/01/12 10:45:53;;;;;;;18.30;8.60;;;;;;;1.10;76.18;93228.78;5069328;28;20032;-74
2021/01/12 10:48:18;;;;;;;9.98;6.47;;;;;;;1.00;76.33;93225.16;5054331;28;20021;-74
2021/01/12 10:50:44;;;;;;;10.55;4.85;;;;;;;1.02;76.88;93221.44;5048265;28;20107;-74
2021/01/12 10:53:09;;;;;;;13.02;5.15;;;;;;;0.98;76.99;93208.09;5049599;28;20496;-74
2021/01/12 10:55:35;;;;;;;11.90;4.93;;;;;;;0.94;77.22;93220.97;5053933;28;20024;-74
2021/01/12 10:58:10;;;;;;;8.85;4.05;;;;;;;0.96;76.88;93231.97;5060636;28;20029;-74
2021/01/12 11:00:52;;;;;;;13.95;5.85;;;;;;;0.99;76.92;93226.19;5064973;28;20057;-74
2021/01/12 11:03:25;;;;;;;13.55;6.40;;;;;;;0.83;77.86;93206.31;5052469;28;20412;-74
2021/01/12 11:06:01;;;;;;;12.82;6.05;;;;;;;0.80;78.28;93204.22;5043362;28;20510;-75
2021/01/12 11:08:27;;;;;;;10.40;5.97;;;;;;;0.63;78.67;93203.75;5065560;28;20095;-75
2021/01/12 11:10:53;;;;;;;6.55;4.40;;;;;;;0.58;79.06;93210.59;5048052;28;20029;-75
2021/01/12 11:13:19;;;;;;;9.15;4.88;;;;;;;0.64;79.47;93200.09;5047841;28;20052;-74
2021/01/12 11:15:45;;;;;;;10.60;5.45;;;;;;;0.64;78.96;93194.84;5049648;28;20025;-75
2021/01/12 11:18:11;;;;;;;11.30;6.03;;;;;;;0.74;79.83;93184.31;5047916;28;20056;-75
2021/01/12 11:20:41;;;;;;;10.18;4.85;;;;;;;0.74;79.10;93186.94;5056273;28;20025;-75
2021/01/12 11:23:07;;;;;;;13.13;5.30;;;;;;;0.76;78.56;93182.22;5047699;28;20025;-75
2021/01/12 11:25:33;;;;;;;17.10;6.80;;;;;;;0.85;78.30;93177.19;5068050;28;20067;-73
2021/01/12 11:27:58;;;;;;;13.73;5.88;;;;;;;0.84;78.24;93189.53;5050620;28;20492;-73
2021/01/12 11:30:24;;;;;;;12.25;5.28;;;;;;;0.86;78.48;93192.66;5053063;28;20017;-73
2021/01/12 11:32:52;;;;;;;16.02;5.30;;;;;;;0.80;77.54;93173.53;5052688;28;20029;-73
2021/01/12 11:35:18;;;;;;;16.00;6.50;;;;;;;0.85;77.90;93161.44;5070268;28;20024;-76
2021/01/12 11:37:45;;;;;;;13.73;5.57;;;;;;;0.75;77.34;93173.56;5058678;28;20043;-75